메인 페이지
METAR-TAF:

METAR-TAF

공항 :

Pirassununga, 상파울루, 브라질

위도: 21-59S, 경도: 047-20W, 고도: 597m

현재 날씨관측

예보는 41분 전, 15:00시(UTC)에 발표되었습니다.
여러 방향의 바람 3kt
온도 31°C
습도 55%
기압 1021 hPa
시정 10km 이상
고도 3000ft 상공 구름 보통

METAR: SBYS 251500Z VRB03KT 9999 SCT030 31/21 Q1021

시각: 12:41 (15:41 UTC)

예보

예보는 6 시간 41분 전, 09:00시(UTC)에 발표되었습니다.
예보 대상 시간: 25일 12시부터 25일 24시까지 (UTC)
북북서7kt
시정 10km 이상
고도 3000ft 상공 구름 보통
전환 중
25일 17시부터 25일 19시까지 (UTC)
시정: 8000m
고도 2000ft 상공 구름 많음
고도 4500ft 상공 구름 조금, 타워링 적운.
소나기
일시적
25일 19시부터 25일 22시까지 (UTC)
시정: 5000m
고도 1500ft 상공 구름 많음
고도 4900ft 상공 구름 조금, 적란운.
뇌우, 비

TAF: SBYS 250900Z 2512/2524 34007KT 9999 SCT030 TN20/2512Z TX23/2517Z BECMG 2517/2519 8000 SHRA BKN020 FEW045TCU TEMPO 2519/2522 5000 TSRA BKN015 FEW049CB RMK PEN

4,000개 이상의 공항 관측 자료 및 예보 (METAR 및 TAF 보고).

지도상에서 검색 가능한 기상관측소가 노란 점과 빨간 점으로 표시되어 있습니다.

기상관측소 명을 보려면 표시 위로 마우스를 이동하세요.

날씨 관측과 예보를 보려면 클릭하세요.

지도 변경 : 확대하려면 엑스 표시가 있는 녹색 버튼, 축소하려면 빼기 표시가 있는 녹색 버튼, 다음 페이지의 지도를 보려면 녹색 화살표를 클릭하세요.


METAR-TAF: